sensor_id;sensor_type;location;lat;lon;timestamp;P1;durP1;ratioP1;P2;durP2;ratioP2
14584;SDS011;7379;51.506;11.876;2022-09-17T00:01:24;3.67;;;1.60;;
14584;SDS011;7379;51.506;11.876;2022-09-17T00:03:54;2.33;;;1.50;;
14584;SDS011;7379;51.506;11.876;2022-09-17T00:06:24;2.08;;;1.40;;
14584;SDS011;7379;51.506;11.876;2022-09-17T00:08:52;2.80;;;1.55;;
14584;SDS011;7379;51.506;11.876;2022-09-17T00:11:20;3.55;;;1.70;;
14584;SDS011;7379;51.506;11.876;2022-09-17T00:13:49;4.93;;;1.52;;
14584;SDS011;7379;51.506;11.876;2022-09-17T00:16:21;2.85;;;1.33;;
14584;SDS011;7379;51.506;11.876;2022-09-17T00:18:53;1.88;;;1.15;;
14584;SDS011;7379;51.506;11.876;2022-09-17T00:21:21;2.47;;;1.48;;
14584;SDS011;7379;51.506;11.876;2022-09-17T00:23:51;3.47;;;1.40;;
14584;SDS011;7379;51.506;11.876;2022-09-17T00:26:19;2.70;;;1.50;;
14584;SDS011;7379;51.506;11.876;2022-09-17T00:28:47;3.33;;;1.27;;
14584;SDS011;7379;51.506;11.876;2022-09-17T00:31:15;2.63;;;1.50;;
14584;SDS011;7379;51.506;11.876;2022-09-17T00:33:42;4.60;;;1.30;;
14584;SDS011;7379;51.506;11.876;2022-09-17T00:36:10;2.80;;;1.45;;
14584;SDS011;7379;51.506;11.876;2022-09-17T00:38:37;2.38;;;1.70;;
14584;SDS011;7379;51.506;11.876;2022-09-17T00:41:04;3.22;;;1.55;;
14584;SDS011;7379;51.506;11.876;2022-09-17T00:43:32;2.80;;;1.40;;
14584;SDS011;7379;51.506;11.876;2022-09-17T00:46:02;3.05;;;1.10;;
14584;SDS011;7379;51.506;11.876;2022-09-17T00:48:29;2.35;;;1.23;;
14584;SDS011;7379;51.506;11.876;2022-09-17T00:50:57;2.15;;;1.30;;
14584;SDS011;7379;51.506;11.876;2022-09-17T00:53:27;2.17;;;1.35;;
14584;SDS011;7379;51.506;11.876;2022-09-17T00:55:56;2.30;;;1.35;;
14584;SDS011;7379;51.506;11.876;2022-09-17T00:58:27;3.33;;;1.30;;
14584;SDS011;7379;51.506;11.876;2022-09-17T01:00:56;2.88;;;1.30;;
14584;SDS011;7379;51.506;11.876;2022-09-17T01:03:23;2.72;;;1.40;;
14584;SDS011;7379;51.506;11.876;2022-09-17T01:05:52;2.15;;;1.05;;
14584;SDS011;7379;51.506;11.876;2022-09-17T01:08:29;2.78;;;1.40;;
14584;SDS011;7379;51.506;11.876;2022-09-17T01:11:13;3.10;;;1.40;;
14584;SDS011;7379;51.506;11.876;2022-09-17T01:13:51;1.60;;;1.10;;
14584;SDS011;7379;51.506;11.876;2022-09-17T01:16:30;2.20;;;1.25;;
14584;SDS011;7379;51.506;11.876;2022-09-17T01:19:11;2.35;;;1.33;;
14584;SDS011;7379;51.506;11.876;2022-09-17T01:22:05;1.95;;;1.42;;
14584;SDS011;7379;51.506;11.876;2022-09-17T01:24:42;2.35;;;1.33;;
14584;SDS011;7379;51.506;11.876;2022-09-17T01:30:31;1.98;;;1.20;;
14584;SDS011;7379;51.506;11.876;2022-09-17T01:33:22;1.67;;;1.05;;
14584;SDS011;7379;51.506;11.876;2022-09-17T01:35:57;2.55;;;1.17;;
14584;SDS011;7379;51.506;11.876;2022-09-17T01:38:31;1.45;;;1.05;;
14584;SDS011;7379;51.506;11.876;2022-09-17T01:41:04;1.63;;;1.02;;
14584;SDS011;7379;51.506;11.876;2022-09-17T01:43:37;1.83;;;1.08;;
14584;SDS011;7379;51.506;11.876;2022-09-17T01:46:13;1.15;;;0.93;;
14584;SDS011;7379;51.506;11.876;2022-09-17T01:48:46;1.80;;;1.20;;
14584;SDS011;7379;51.506;11.876;2022-09-17T01:51:17;1.40;;;0.90;;
14584;SDS011;7379;51.506;11.876;2022-09-17T01:53:49;1.05;;;1.00;;
14584;SDS011;7379;51.506;11.876;2022-09-17T01:56:22;1.77;;;1.05;;
14584;SDS011;7379;51.506;11.876;2022-09-17T01:58:59;1.35;;;0.90;;
14584;SDS011;7379;51.506;11.876;2022-09-17T02:01:31;1.17;;;0.90;;
14584;SDS011;7379;51.506;11.876;2022-09-17T02:04:00;1.70;;;1.00;;
14584;SDS011;7379;51.506;11.876;2022-09-17T02:06:30;1.10;;;0.90;;
14584;SDS011;7379;51.506;11.876;2022-09-17T02:09:04;2.22;;;1.00;;
14584;SDS011;7379;51.506;11.876;2022-09-17T02:11:36;0.98;;;0.82;;
14584;SDS011;7379;51.506;11.876;2022-09-17T02:14:06;0.90;;;0.80;;
14584;SDS011;7379;51.506;11.876;2022-09-17T02:16:38;1.00;;;0.90;;
14584;SDS011;7379;51.506;11.876;2022-09-17T02:19:11;1.40;;;1.00;;
14584;SDS011;7379;51.506;11.876;2022-09-17T02:21:42;1.17;;;0.75;;
14584;SDS011;7379;51.506;11.876;2022-09-17T02:24:16;1.38;;;1.00;;
14584;SDS011;7379;51.506;11.876;2022-09-17T02:26:49;0.60;;;0.60;;
14584;SDS011;7379;51.506;11.876;2022-09-17T02:29:23;0.88;;;0.68;;
14584;SDS011;7379;51.506;11.876;2022-09-17T02:31:55;1.02;;;0.88;;
14584;SDS011;7379;51.506;11.876;2022-09-17T02:34:22;0.80;;;0.80;;
14584;SDS011;7379;51.506;11.876;2022-09-17T02:36:52;2.25;;;1.05;;
14584;SDS011;7379;51.506;11.876;2022-09-17T02:39:19;1.17;;;0.88;;
14584;SDS011;7379;51.506;11.876;2022-09-17T02:41:48;1.33;;;0.70;;
14584;SDS011;7379;51.506;11.876;2022-09-17T02:44:25;0.70;;;0.70;;
14584;SDS011;7379;51.506;11.876;2022-09-17T02:47:10;1.75;;;0.90;;
14584;SDS011;7379;51.506;11.876;2022-09-17T02:49:56;0.70;;;0.68;;
14584;SDS011;7379;51.506;11.876;2022-09-17T02:52:35;1.00;;;0.70;;
14584;SDS011;7379;51.506;11.876;2022-09-17T02:55:11;0.57;;;0.57;;
14584;SDS011;7379;51.506;11.876;2022-09-17T02:57:44;1.30;;;0.75;;
14584;SDS011;7379;51.506;11.876;2022-09-17T03:00:18;0.70;;;0.52;;
14584;SDS011;7379;51.506;11.876;2022-09-17T03:02:49;0.95;;;0.85;;
14584;SDS011;7379;51.506;11.876;2022-09-17T03:05:18;1.13;;;0.93;;
14584;SDS011;7379;51.506;11.876;2022-09-17T03:07:47;1.08;;;0.70;;
14584;SDS011;7379;51.506;11.876;2022-09-17T03:10:14;1.50;;;0.75;;
14584;SDS011;7379;51.506;11.876;2022-09-17T03:12:43;0.52;;;0.52;;
14584;SDS011;7379;51.506;11.876;2022-09-17T03:15:10;0.73;;;0.73;;
14584;SDS011;7379;51.506;11.876;2022-09-17T03:17:36;1.02;;;0.60;;
14584;SDS011;7379;51.506;11.876;2022-09-17T03:20:05;1.10;;;0.82;;
14584;SDS011;7379;51.506;11.876;2022-09-17T03:22:32;1.88;;;0.82;;
14584;SDS011;7379;51.506;11.876;2022-09-17T03:24:59;1.13;;;0.93;;
14584;SDS011;7379;51.506;11.876;2022-09-17T03:27:35;0.60;;;0.60;;
14584;SDS011;7379;51.506;11.876;2022-09-17T03:30:02;0.63;;;0.55;;
14584;SDS011;7379;51.506;11.876;2022-09-17T03:32:29;1.05;;;0.63;;
14584;SDS011;7379;51.506;11.876;2022-09-17T03:34:56;0.82;;;0.80;;
14584;SDS011;7379;51.506;11.876;2022-09-17T03:37:24;1.52;;;0.80;;
14584;SDS011;7379;51.506;11.876;2022-09-17T03:39:52;1.17;;;0.93;;
14584;SDS011;7379;51.506;11.876;2022-09-17T03:42:19;0.90;;;0.60;;
14584;SDS011;7379;51.506;11.876;2022-09-17T03:44:46;2.00;;;0.77;;
14584;SDS011;7379;51.506;11.876;2022-09-17T03:47:13;0.63;;;0.63;;
14584;SDS011;7379;51.506;11.876;2022-09-17T03:49:40;0.80;;;0.80;;
14584;SDS011;7379;51.506;11.876;2022-09-17T03:52:07;0.63;;;0.60;;
14584;SDS011;7379;51.506;11.876;2022-09-17T03:54:36;1.85;;;0.90;;
14584;SDS011;7379;51.506;11.876;2022-09-17T03:57:03;0.80;;;0.65;;
14584;SDS011;7379;51.506;11.876;2022-09-17T03:59:30;1.50;;;0.82;;
14584;SDS011;7379;51.506;11.876;2022-09-17T04:01:57;0.73;;;0.70;;
14584;SDS011;7379;51.506;11.876;2022-09-17T04:04:24;1.70;;;0.80;;
14584;SDS011;7379;51.506;11.876;2022-09-17T04:06:51;0.88;;;0.88;;
14584;SDS011;7379;51.506;11.876;2022-09-17T04:09:19;0.70;;;0.70;;
14584;SDS011;7379;51.506;11.876;2022-09-17T04:11:47;0.60;;;0.60;;
14584;SDS011;7379;51.506;11.876;2022-09-17T04:14:14;1.20;;;0.85;;
14584;SDS011;7379;51.506;11.876;2022-09-17T04:16:41;0.80;;;0.80;;
14584;SDS011;7379;51.506;11.876;2022-09-17T04:19:08;1.10;;;0.82;;
14584;SDS011;7379;51.506;11.876;2022-09-17T04:21:36;1.85;;;1.08;;
14584;SDS011;7379;51.506;11.876;2022-09-17T04:24:03;1.60;;;1.08;;
14584;SDS011;7379;51.506;11.876;2022-09-17T04:26:30;3.38;;;0.98;;
14584;SDS011;7379;51.506;11.876;2022-09-17T04:28:58;1.25;;;0.80;;
14584;SDS011;7379;51.506;11.876;2022-09-17T04:31:26;1.73;;;0.90;;
14584;SDS011;7379;51.506;11.876;2022-09-17T04:33:53;1.70;;;1.05;;
14584;SDS011;7379;51.506;11.876;2022-09-17T04:36:20;1.63;;;1.00;;
14584;SDS011;7379;51.506;11.876;2022-09-17T04:38:47;2.58;;;1.05;;
14584;SDS011;7379;51.506;11.876;2022-09-17T04:41:14;1.67;;;1.05;;
14584;SDS011;7379;51.506;11.876;2022-09-17T04:43:41;2.30;;;1.25;;
14584;SDS011;7379;51.506;11.876;2022-09-17T04:46:10;1.50;;;1.08;;
14584;SDS011;7379;51.506;11.876;2022-09-17T04:48:38;1.45;;;0.90;;
14584;SDS011;7379;51.506;11.876;2022-09-17T04:51:05;1.75;;;1.10;;
14584;SDS011;7379;51.506;11.876;2022-09-17T04:53:32;0.90;;;0.90;;
14584;SDS011;7379;51.506;11.876;2022-09-17T04:55:59;1.73;;;1.25;;
14584;SDS011;7379;51.506;11.876;2022-09-17T04:58:27;2.08;;;1.25;;
14584;SDS011;7379;51.506;11.876;2022-09-17T05:00:55;2.08;;;1.15;;
14584;SDS011;7379;51.506;11.876;2022-09-17T05:03:23;2.28;;;1.20;;
14584;SDS011;7379;51.506;11.876;2022-09-17T05:05:51;2.08;;;1.40;;
14584;SDS011;7379;51.506;11.876;2022-09-17T05:08:18;4.20;;;1.65;;
14584;SDS011;7379;51.506;11.876;2022-09-17T05:10:48;3.35;;;1.80;;
14584;SDS011;7379;51.506;11.876;2022-09-17T05:13:15;3.05;;;1.70;;
14584;SDS011;7379;51.506;11.876;2022-09-17T05:15:42;5.72;;;1.70;;
14584;SDS011;7379;51.506;11.876;2022-09-17T05:18:09;7.30;;;2.30;;
14584;SDS011;7379;51.506;11.876;2022-09-17T05:20:38;5.20;;;2.25;;
14584;SDS011;7379;51.506;11.876;2022-09-17T05:23:05;6.65;;;2.42;;
14584;SDS011;7379;51.506;11.876;2022-09-17T05:25:32;5.68;;;2.50;;
14584;SDS011;7379;51.506;11.876;2022-09-17T05:27:59;8.75;;;2.47;;
14584;SDS011;7379;51.506;11.876;2022-09-17T05:30:26;3.95;;;2.10;;
14584;SDS011;7379;51.506;11.876;2022-09-17T05:32:57;8.70;;;2.47;;
14584;SDS011;7379;51.506;11.876;2022-09-17T05:35:25;8.60;;;2.97;;
14584;SDS011;7379;51.506;11.876;2022-09-17T05:37:56;7.18;;;2.50;;
14584;SDS011;7379;51.506;11.876;2022-09-17T05:40:23;8.55;;;2.75;;
14584;SDS011;7379;51.506;11.876;2022-09-17T05:42:50;7.20;;;2.33;;
14584;SDS011;7379;51.506;11.876;2022-09-17T05:45:17;6.05;;;2.63;;
14584;SDS011;7379;51.506;11.876;2022-09-17T05:47:44;8.40;;;2.47;;
14584;SDS011;7379;51.506;11.876;2022-09-17T05:50:11;8.40;;;2.55;;
14584;SDS011;7379;51.506;11.876;2022-09-17T05:52:38;8.30;;;2.47;;
14584;SDS011;7379;51.506;11.876;2022-09-17T05:55:07;9.23;;;2.65;;
14584;SDS011;7379;51.506;11.876;2022-09-17T05:57:34;8.38;;;2.60;;
14584;SDS011;7379;51.506;11.876;2022-09-17T06:00:02;8.73;;;2.90;;
14584;SDS011;7379;51.506;11.876;2022-09-17T06:02:29;10.75;;;2.65;;
14584;SDS011;7379;51.506;11.876;2022-09-17T06:04:57;10.07;;;2.80;;
14584;SDS011;7379;51.506;11.876;2022-09-17T06:07:25;6.90;;;2.33;;
14584;SDS011;7379;51.506;11.876;2022-09-17T06:09:53;7.38;;;2.47;;
14584;SDS011;7379;51.506;11.876;2022-09-17T06:12:21;9.02;;;2.83;;
14584;SDS011;7379;51.506;11.876;2022-09-17T06:14:48;9.45;;;2.78;;
14584;SDS011;7379;51.506;11.876;2022-09-17T06:17:15;9.88;;;3.05;;
14584;SDS011;7379;51.506;11.876;2022-09-17T06:19:42;7.15;;;2.35;;
14584;SDS011;7379;51.506;11.876;2022-09-17T06:22:09;9.02;;;2.70;;
14584;SDS011;7379;51.506;11.876;2022-09-17T06:24:36;9.82;;;2.58;;
14584;SDS011;7379;51.506;11.876;2022-09-17T06:27:04;9.27;;;2.50;;
14584;SDS011;7379;51.506;11.876;2022-09-17T06:29:32;7.32;;;2.80;;
14584;SDS011;7379;51.506;11.876;2022-09-17T06:31:59;7.05;;;2.85;;
14584;SDS011;7379;51.506;11.876;2022-09-17T06:34:26;9.27;;;2.70;;
14584;SDS011;7379;51.506;11.876;2022-09-17T06:36:53;6.50;;;2.33;;
14584;SDS011;7379;51.506;11.876;2022-09-17T06:39:21;11.32;;;3.30;;
14584;SDS011;7379;51.506;11.876;2022-09-17T06:41:48;5.75;;;2.42;;
14584;SDS011;7379;51.506;11.876;2022-09-17T06:44:15;7.10;;;2.47;;
14584;SDS011;7379;51.506;11.876;2022-09-17T06:46:44;7.13;;;2.58;;
14584;SDS011;7379;51.506;11.876;2022-09-17T06:49:11;5.72;;;2.50;;
14584;SDS011;7379;51.506;11.876;2022-09-17T06:51:41;7.88;;;2.45;;
14584;SDS011;7379;51.506;11.876;2022-09-17T06:54:08;6.43;;;2.20;;
14584;SDS011;7379;51.506;11.876;2022-09-17T06:56:36;6.65;;;2.67;;
14584;SDS011;7379;51.506;11.876;2022-09-17T06:59:03;9.82;;;2.40;;
14584;SDS011;7379;51.506;11.876;2022-09-17T07:01:30;8.43;;;2.45;;
14584;SDS011;7379;51.506;11.876;2022-09-17T07:03:59;8.75;;;2.30;;
14584;SDS011;7379;51.506;11.876;2022-09-17T07:06:26;8.05;;;2.25;;
14584;SDS011;7379;51.506;11.876;2022-09-17T07:08:53;5.38;;;2.00;;
14584;SDS011;7379;51.506;11.876;2022-09-17T07:11:20;5.93;;;2.38;;
14584;SDS011;7379;51.506;11.876;2022-09-17T07:13:47;7.10;;;2.55;;
14584;SDS011;7379;51.506;11.876;2022-09-17T07:16:14;5.45;;;2.00;;
14584;SDS011;7379;51.506;11.876;2022-09-17T07:18:41;9.77;;;2.58;;
14584;SDS011;7379;51.506;11.876;2022-09-17T07:21:10;7.85;;;2.10;;
14584;SDS011;7379;51.506;11.876;2022-09-17T07:23:37;5.70;;;2.20;;
14584;SDS011;7379;51.506;11.876;2022-09-17T07:26:05;8.27;;;2.35;;
14584;SDS011;7379;51.506;11.876;2022-09-17T07:28:32;6.07;;;2.30;;
14584;SDS011;7379;51.506;11.876;2022-09-17T07:31:01;7.72;;;2.58;;
14584;SDS011;7379;51.506;11.876;2022-09-17T07:33:28;6.90;;;2.55;;
14584;SDS011;7379;51.506;11.876;2022-09-17T07:35:56;6.10;;;2.42;;
14584;SDS011;7379;51.506;11.876;2022-09-17T07:38:25;8.15;;;2.40;;
14584;SDS011;7379;51.506;11.876;2022-09-17T07:40:54;8.95;;;2.28;;
14584;SDS011;7379;51.506;11.876;2022-09-17T07:43:22;7.68;;;2.20;;
14584;SDS011;7379;51.506;11.876;2022-09-17T07:45:49;6.68;;;2.10;;
14584;SDS011;7379;51.506;11.876;2022-09-17T07:48:16;9.00;;;2.50;;
14584;SDS011;7379;51.506;11.876;2022-09-17T07:50:44;5.22;;;2.28;;
14584;SDS011;7379;51.506;11.876;2022-09-17T07:53:11;5.80;;;2.53;;
14584;SDS011;7379;51.506;11.876;2022-09-17T07:55:39;9.10;;;2.22;;
14584;SDS011;7379;51.506;11.876;2022-09-17T07:58:07;6.97;;;2.35;;
14584;SDS011;7379;51.506;11.876;2022-09-17T08:00:34;6.30;;;2.13;;
14584;SDS011;7379;51.506;11.876;2022-09-17T08:03:01;6.13;;;2.55;;
14584;SDS011;7379;51.506;11.876;2022-09-17T08:05:28;6.93;;;2.38;;
14584;SDS011;7379;51.506;11.876;2022-09-17T08:07:58;8.23;;;2.22;;
14584;SDS011;7379;51.506;11.876;2022-09-17T08:10:25;5.75;;;2.28;;
14584;SDS011;7379;51.506;11.876;2022-09-17T08:12:55;6.00;;;2.13;;
14584;SDS011;7379;51.506;11.876;2022-09-17T08:15:23;7.05;;;2.53;;
14584;SDS011;7379;51.506;11.876;2022-09-17T08:17:50;7.38;;;2.40;;
14584;SDS011;7379;51.506;11.876;2022-09-17T08:20:18;7.35;;;2.22;;
14584;SDS011;7379;51.506;11.876;2022-09-17T08:22:45;5.15;;;2.22;;
14584;SDS011;7379;51.506;11.876;2022-09-17T08:25:12;6.32;;;2.38;;
14584;SDS011;7379;51.506;11.876;2022-09-17T08:27:39;7.15;;;2.13;;
14584;SDS011;7379;51.506;11.876;2022-09-17T08:30:08;5.28;;;2.15;;
14584;SDS011;7379;51.506;11.876;2022-09-17T08:32:35;6.90;;;2.25;;
14584;SDS011;7379;51.506;11.876;2022-09-17T08:35:03;5.50;;;2.03;;
14584;SDS011;7379;51.506;11.876;2022-09-17T08:37:30;4.50;;;1.88;;
14584;SDS011;7379;51.506;11.876;2022-09-17T08:39:57;6.28;;;2.00;;
14584;SDS011;7379;51.506;11.876;2022-09-17T08:42:26;7.25;;;2.28;;
14584;SDS011;7379;51.506;11.876;2022-09-17T08:44:56;4.82;;;2.08;;
14584;SDS011;7379;51.506;11.876;2022-09-17T08:47:25;7.78;;;2.28;;
14584;SDS011;7379;51.506;11.876;2022-09-17T08:49:53;8.40;;;2.22;;
14584;SDS011;7379;51.506;11.876;2022-09-17T08:52:42;5.13;;;2.10;;
14584;SDS011;7379;51.506;11.876;2022-09-17T08:55:14;5.65;;;1.98;;
14584;SDS011;7379;51.506;11.876;2022-09-17T08:57:43;6.60;;;2.20;;
14584;SDS011;7379;51.506;11.876;2022-09-17T09:00:15;5.10;;;2.03;;
14584;SDS011;7379;51.506;11.876;2022-09-17T09:02:48;9.45;;;2.30;;
14584;SDS011;7379;51.506;11.876;2022-09-17T09:05:18;6.38;;;2.40;;
14584;SDS011;7379;51.506;11.876;2022-09-17T09:07:47;6.32;;;1.92;;
14584;SDS011;7379;51.506;11.876;2022-09-17T09:10:17;6.07;;;2.05;;
14584;SDS011;7379;51.506;11.876;2022-09-17T09:12:47;7.35;;;2.30;;
14584;SDS011;7379;51.506;11.876;2022-09-17T09:15:22;9.15;;;2.60;;
14584;SDS011;7379;51.506;11.876;2022-09-17T09:17:51;6.25;;;2.30;;
14584;SDS011;7379;51.506;11.876;2022-09-17T09:20:21;6.13;;;2.10;;
14584;SDS011;7379;51.506;11.876;2022-09-17T09:22:56;7.53;;;2.17;;
14584;SDS011;7379;51.506;11.876;2022-09-17T09:25:27;5.68;;;2.15;;
14584;SDS011;7379;51.506;11.876;2022-09-17T09:27:58;7.18;;;2.10;;
14584;SDS011;7379;51.506;11.876;2022-09-17T09:30:29;5.47;;;2.35;;
14584;SDS011;7379;51.506;11.876;2022-09-17T09:32:59;6.15;;;2.20;;
14584;SDS011;7379;51.506;11.876;2022-09-17T09:35:26;6.93;;;2.22;;
14584;SDS011;7379;51.506;11.876;2022-09-17T09:37:55;3.88;;;2.08;;
14584;SDS011;7379;51.506;11.876;2022-09-17T09:40:33;4.85;;;1.95;;
14584;SDS011;7379;51.506;11.876;2022-09-17T09:43:02;7.53;;;2.33;;
14584;SDS011;7379;51.506;11.876;2022-09-17T09:45:37;8.82;;;2.47;;
14584;SDS011;7379;51.506;11.876;2022-09-17T09:48:09;6.57;;;2.05;;
14584;SDS011;7379;51.506;11.876;2022-09-17T09:50:40;6.57;;;2.35;;
14584;SDS011;7379;51.506;11.876;2022-09-17T09:53:13;8.07;;;2.30;;
14584;SDS011;7379;51.506;11.876;2022-09-17T09:55:47;6.60;;;2.13;;
14584;SDS011;7379;51.506;11.876;2022-09-17T09:58:19;5.05;;;2.10;;
14584;SDS011;7379;51.506;11.876;2022-09-17T10:00:49;5.28;;;2.10;;
14584;SDS011;7379;51.506;11.876;2022-09-17T10:03:18;6.28;;;2.00;;
14584;SDS011;7379;51.506;11.876;2022-09-17T10:05:53;6.45;;;1.98;;
14584;SDS011;7379;51.506;11.876;2022-09-17T10:08:20;5.18;;;1.95;;
14584;SDS011;7379;51.506;11.876;2022-09-17T10:10:55;6.40;;;2.00;;
14584;SDS011;7379;51.506;11.876;2022-09-17T10:13:22;8.63;;;1.98;;
14584;SDS011;7379;51.506;11.876;2022-09-17T10:15:50;7.15;;;2.13;;
14584;SDS011;7379;51.506;11.876;2022-09-17T10:18:19;6.22;;;2.00;;
14584;SDS011;7379;51.506;11.876;2022-09-17T10:20:50;8.27;;;2.17;;
14584;SDS011;7379;51.506;11.876;2022-09-17T10:23:17;8.15;;;2.38;;
14584;SDS011;7379;51.506;11.876;2022-09-17T10:25:45;4.85;;;2.13;;
14584;SDS011;7379;51.506;11.876;2022-09-17T10:31:04;7.00;;;1.98;;
14584;SDS011;7379;51.506;11.876;2022-09-17T10:33:36;6.07;;;2.17;;
14584;SDS011;7379;51.506;11.876;2022-09-17T10:36:04;7.13;;;2.22;;
14584;SDS011;7379;51.506;11.876;2022-09-17T10:38:34;6.80;;;2.10;;
14584;SDS011;7379;51.506;11.876;2022-09-17T10:41:08;7.95;;;2.25;;
14584;SDS011;7379;51.506;11.876;2022-09-17T10:43:35;5.07;;;1.90;;
14584;SDS011;7379;51.506;11.876;2022-09-17T10:46:02;6.90;;;2.25;;
14584;SDS011;7379;51.506;11.876;2022-09-17T10:48:30;6.13;;;2.00;;
14584;SDS011;7379;51.506;11.876;2022-09-17T10:51:00;6.68;;;2.40;;
14584;SDS011;7379;51.506;11.876;2022-09-17T10:53:30;6.55;;;2.50;;
14584;SDS011;7379;51.506;11.876;2022-09-17T10:56:00;5.10;;;2.22;;
14584;SDS011;7379;51.506;11.876;2022-09-17T10:58:34;6.25;;;2.40;;
14584;SDS011;7379;51.506;11.876;2022-09-17T11:01:07;5.50;;;2.42;;
14584;SDS011;7379;51.506;11.876;2022-09-17T11:03:40;5.35;;;2.30;;
14584;SDS011;7379;51.506;11.876;2022-09-17T11:06:16;5.75;;;1.88;;
14584;SDS011;7379;51.506;11.876;2022-09-17T11:08:48;6.80;;;2.22;;
14584;SDS011;7379;51.506;11.876;2022-09-17T11:11:25;6.05;;;2.33;;
14584;SDS011;7379;51.506;11.876;2022-09-17T11:13:56;6.60;;;2.28;;
14584;SDS011;7379;51.506;11.876;2022-09-17T11:16:30;5.88;;;2.20;;
14584;SDS011;7379;51.506;11.876;2022-09-17T11:19:02;4.45;;;2.00;;
14584;SDS011;7379;51.506;11.876;2022-09-17T11:21:36;6.20;;;2.10;;
14584;SDS011;7379;51.506;11.876;2022-09-17T11:27:04;6.20;;;2.40;;
14584;SDS011;7379;51.506;11.876;2022-09-17T11:29:49;7.00;;;2.35;;
14584;SDS011;7379;51.506;11.876;2022-09-17T11:32:24;4.07;;;1.92;;
14584;SDS011;7379;51.506;11.876;2022-09-17T11:34:55;5.60;;;2.17;;
14584;SDS011;7379;51.506;11.876;2022-09-17T11:37:26;5.82;;;2.17;;
14584;SDS011;7379;51.506;11.876;2022-09-17T11:39:57;5.80;;;2.22;;
14584;SDS011;7379;51.506;11.876;2022-09-17T11:42:27;7.70;;;2.28;;
14584;SDS011;7379;51.506;11.876;2022-09-17T11:44:57;4.03;;;1.83;;
14584;SDS011;7379;51.506;11.876;2022-09-17T11:47:26;4.35;;;2.10;;
14584;SDS011;7379;51.506;11.876;2022-09-17T11:49:55;3.80;;;2.00;;
14584;SDS011;7379;51.506;11.876;2022-09-17T11:52:27;4.80;;;2.20;;
14584;SDS011;7379;51.506;11.876;2022-09-17T11:54:56;6.00;;;1.95;;
14584;SDS011;7379;51.506;11.876;2022-09-17T11:57:26;4.00;;;1.90;;
14584;SDS011;7379;51.506;11.876;2022-09-17T11:59:58;5.50;;;2.22;;
14584;SDS011;7379;51.506;11.876;2022-09-17T12:02:32;5.40;;;2.20;;
14584;SDS011;7379;51.506;11.876;2022-09-17T12:05:00;6.28;;;1.90;;
14584;SDS011;7379;51.506;11.876;2022-09-17T12:07:32;4.18;;;1.90;;
14584;SDS011;7379;51.506;11.876;2022-09-17T12:10:08;4.65;;;2.08;;
14584;SDS011;7379;51.506;11.876;2022-09-17T12:12:42;4.63;;;2.03;;
14584;SDS011;7379;51.506;11.876;2022-09-17T12:15:13;5.25;;;1.95;;
14584;SDS011;7379;51.506;11.876;2022-09-17T12:17:45;5.40;;;1.98;;
14584;SDS011;7379;51.506;11.876;2022-09-17T12:20:17;5.25;;;2.00;;
14584;SDS011;7379;51.506;11.876;2022-09-17T12:22:48;7.28;;;2.25;;
14584;SDS011;7379;51.506;11.876;2022-09-17T12:25:16;3.08;;;1.80;;
14584;SDS011;7379;51.506;11.876;2022-09-17T12:27:46;3.83;;;1.80;;
14584;SDS011;7379;51.506;11.876;2022-09-17T12:30:15;6.82;;;1.92;;
14584;SDS011;7379;51.506;11.876;2022-09-17T12:32:46;5.28;;;1.88;;
14584;SDS011;7379;51.506;11.876;2022-09-17T12:35:17;7.20;;;2.25;;
14584;SDS011;7379;51.506;11.876;2022-09-17T12:37:52;6.07;;;1.90;;
14584;SDS011;7379;51.506;11.876;2022-09-17T12:40:26;5.68;;;2.10;;
14584;SDS011;7379;51.506;11.876;2022-09-17T12:43:00;4.57;;;1.88;;
14584;SDS011;7379;51.506;11.876;2022-09-17T12:45:45;3.22;;;1.60;;
14584;SDS011;7379;51.506;11.876;2022-09-17T12:48:19;5.60;;;2.17;;
14584;SDS011;7379;51.506;11.876;2022-09-17T12:50:52;4.43;;;2.03;;
14584;SDS011;7379;51.506;11.876;2022-09-17T12:53:24;4.13;;;2.10;;
14584;SDS011;7379;51.506;11.876;2022-09-17T12:55:57;6.35;;;2.10;;
14584;SDS011;7379;51.506;11.876;2022-09-17T12:58:27;6.57;;;2.00;;
14584;SDS011;7379;51.506;11.876;2022-09-17T13:01:00;3.70;;;1.60;;
14584;SDS011;7379;51.506;11.876;2022-09-17T13:03:29;6.70;;;2.20;;
14584;SDS011;7379;51.506;11.876;2022-09-17T13:06:02;4.93;;;2.03;;
14584;SDS011;7379;51.506;11.876;2022-09-17T13:08:42;4.90;;;2.10;;
14584;SDS011;7379;51.506;11.876;2022-09-17T13:11:23;5.28;;;2.10;;
14584;SDS011;7379;51.506;11.876;2022-09-17T13:13:56;4.78;;;2.22;;
14584;SDS011;7379;51.506;11.876;2022-09-17T13:16:25;4.32;;;2.03;;
14584;SDS011;7379;51.506;11.876;2022-09-17T13:18:57;9.63;;;2.03;;
14584;SDS011;7379;51.506;11.876;2022-09-17T13:21:29;6.22;;;2.00;;
14584;SDS011;7379;51.506;11.876;2022-09-17T13:23:59;5.72;;;2.00;;
14584;SDS011;7379;51.506;11.876;2022-09-17T13:26:32;4.13;;;1.80;;
14584;SDS011;7379;51.506;11.876;2022-09-17T13:29:00;6.47;;;2.20;;
14584;SDS011;7379;51.506;11.876;2022-09-17T13:34:26;5.57;;;1.98;;
14584;SDS011;7379;51.506;11.876;2022-09-17T13:36:54;4.75;;;2.00;;
14584;SDS011;7379;51.506;11.876;2022-09-17T13:39:32;4.30;;;1.98;;
14584;SDS011;7379;51.506;11.876;2022-09-17T13:42:02;5.93;;;2.30;;
14584;SDS011;7379;51.506;11.876;2022-09-17T13:44:32;4.38;;;1.88;;
14584;SDS011;7379;51.506;11.876;2022-09-17T13:47:07;5.22;;;1.70;;
14584;SDS011;7379;51.506;11.876;2022-09-17T13:49:35;4.10;;;1.80;;
14584;SDS011;7379;51.506;11.876;2022-09-17T13:52:02;5.15;;;2.00;;
14584;SDS011;7379;51.506;11.876;2022-09-17T13:54:37;5.10;;;1.90;;
14584;SDS011;7379;51.506;11.876;2022-09-17T13:57:06;3.75;;;1.80;;
14584;SDS011;7379;51.506;11.876;2022-09-17T13:59:34;4.82;;;2.05;;
14584;SDS011;7379;51.506;11.876;2022-09-17T14:07:45;4.43;;;1.50;;
14584;SDS011;7379;51.506;11.876;2022-09-17T14:10:34;4.13;;;1.65;;
14584;SDS011;7379;51.506;11.876;2022-09-17T14:15:57;5.55;;;1.75;;
14584;SDS011;7379;51.506;11.876;2022-09-17T14:21:20;4.38;;;1.60;;
14584;SDS011;7379;51.506;11.876;2022-09-17T14:23:53;4.22;;;1.65;;
14584;SDS011;7379;51.506;11.876;2022-09-17T14:26:26;3.55;;;1.60;;
14584;SDS011;7379;51.506;11.876;2022-09-17T14:28:56;3.92;;;1.67;;
14584;SDS011;7379;51.506;11.876;2022-09-17T14:31:29;4.38;;;1.60;;
14584;SDS011;7379;51.506;11.876;2022-09-17T14:33:57;3.30;;;1.50;;
14584;SDS011;7379;51.506;11.876;2022-09-17T14:36:24;3.88;;;1.58;;
14584;SDS011;7379;51.506;11.876;2022-09-17T14:38:51;5.00;;;1.92;;
14584;SDS011;7379;51.506;11.876;2022-09-17T14:41:20;4.65;;;1.80;;
14584;SDS011;7379;51.506;11.876;2022-09-17T14:43:51;2.65;;;1.50;;
14584;SDS011;7379;51.506;11.876;2022-09-17T14:46:21;4.22;;;1.90;;
14584;SDS011;7379;51.506;11.876;2022-09-17T14:48:49;3.45;;;1.55;;
14584;SDS011;7379;51.506;11.876;2022-09-17T14:51:23;5.38;;;1.70;;
14584;SDS011;7379;51.506;11.876;2022-09-17T14:56:50;4.82;;;1.73;;
14584;SDS011;7379;51.506;11.876;2022-09-17T14:59:21;2.30;;;1.55;;
14584;SDS011;7379;51.506;11.876;2022-09-17T15:01:49;2.70;;;1.50;;
14584;SDS011;7379;51.506;11.876;2022-09-17T15:04:20;4.82;;;1.65;;
14584;SDS011;7379;51.506;11.876;2022-09-17T15:06:47;4.45;;;1.77;;
14584;SDS011;7379;51.506;11.876;2022-09-17T15:09:15;4.55;;;1.63;;
14584;SDS011;7379;51.506;11.876;2022-09-17T15:11:43;2.60;;;1.58;;
14584;SDS011;7379;51.506;11.876;2022-09-17T15:14:13;3.75;;;1.60;;
14584;SDS011;7379;51.506;11.876;2022-09-17T15:16:47;5.28;;;1.92;;
14584;SDS011;7379;51.506;11.876;2022-09-17T15:19:15;5.97;;;1.65;;
14584;SDS011;7379;51.506;11.876;2022-09-17T15:21:46;4.30;;;1.80;;
14584;SDS011;7379;51.506;11.876;2022-09-17T15:24:16;4.22;;;1.90;;
14584;SDS011;7379;51.506;11.876;2022-09-17T15:26:46;4.00;;;1.63;;
14584;SDS011;7379;51.506;11.876;2022-09-17T15:29:18;3.80;;;1.58;;
14584;SDS011;7379;51.506;11.876;2022-09-17T15:31:48;4.10;;;1.50;;